Main page
METAR-TAF:

METAR-TAF

Airports :

Provincetown Municipal Airport

Provincetown, Massachusetts, United States

latitude: 42-04N, longitude: 070-13W, elevation: 7 ft

Current weather observation

The report was made 11 minutes ago, at 16:56 UTC
Wind 20 mph from the South/Southwest with gusts up to 29 mph
Temperature 46°F
Humidity 87%
Pressure 29.25 in. Hg
Visibility: 10 miles
Clear sky

METAR: KPVC 271656Z AUTO 21017G25KT 10SM CLR 08/06 A2925 RMK AO2 SLP906 T00780056

Time: 12:07 (17:07 UTC)


TAF: missing

Weather observations and forecasts of more than 4000 airports (METAR and TAF reports).

The available stations are represented by yellow and red dots on the map.

Hover mouse over dot to see the name of the station.

Then click to see weather observations and forecasts.

To change the map : click on the green buttons with a black cross to zoom in, on the green button with a dash to zoom out, or on the green arrows for adjacent maps.


METAR-TAF: